Time;durP1;ratioP1;P1;durP2;ratioP2;P2;SDS_P1;SDS_P2;PMS_P1;PMS_P2;Temp;Humidity;BMP_temperature;BMP_pressure;BME280_temperature;BME280_humidity;BME280_pressure;Samples;Min_cycle;Max_cycle;Signal;HPM_P1;HPM_P2
2024/02/25 00:01:50;;;;;;;6.70;4.28;;;5.50;79.70;;;;;;5011032;28;20141;-63
2024/02/25 00:04:15;;;;;;;7.20;4.53;;;5.50;79.70;;;;;;5002970;28;20037;-61
2024/02/25 00:06:45;;;;;;;10.05;5.60;;;5.50;79.80;;;;;;5007107;28;20501;-63
2024/02/25 00:09:11;;;;;;;10.02;5.85;;;5.50;79.90;;;;;;5008868;28;20026;-63
2024/02/25 00:11:40;;;;;;;9.70;5.95;;;5.60;79.90;;;;;;5009786;28;20029;-63
2024/02/25 00:14:07;;;;;;;9.48;5.82;;;5.60;80.00;;;;;;5007756;28;20045;-62
2024/02/25 00:16:33;;;;;;;5.80;3.92;;;5.60;80.00;;;;;;5009881;28;20030;-63
2024/02/25 00:18:59;;;;;;;6.68;4.30;;;5.60;80.70;;;;;;5007248;28;20383;-63
2024/02/25 00:21:24;;;;;;;5.38;3.53;;;5.60;79.80;;;;;;5008035;28;20065;-63
2024/02/25 00:23:50;;;;;;;4.15;3.30;;;5.60;79.80;;;;;;5007504;28;20398;-63
2024/02/25 00:26:15;;;;;;;4.47;3.05;;;5.60;80.00;;;;;;5003598;28;20061;-63
2024/02/25 00:28:41;;;;;;;3.88;2.90;;;5.60;80.20;;;;;;5007172;28;20030;-63
2024/02/25 00:31:06;;;;;;;4.18;2.78;;;5.60;80.30;;;;;;5009670;28;20029;-63
2024/02/25 00:33:32;;;;;;;4.90;2.90;;;5.60;80.30;;;;;;5008033;28;20032;-64
2024/02/25 00:35:58;;;;;;;3.83;3.00;;;5.60;80.20;;;;;;5007648;28;20037;-64
2024/02/25 00:38:23;;;;;;;6.40;2.67;;;5.60;80.30;;;;;;5011197;28;20460;-64
2024/02/25 00:40:49;;;;;;;4.03;3.05;;;5.70;80.20;;;;;;5011221;28;20556;-63
2024/02/25 00:43:14;;;;;;;2.83;2.53;;;5.70;80.30;;;;;;5007260;28;20069;-63
2024/02/25 00:45:40;;;;;;;3.17;2.40;;;5.70;80.30;;;;;;5006256;28;20027;-63
2024/02/25 00:48:06;;;;;;;5.63;2.60;;;5.70;80.20;;;;;;5009617;28;20034;-63
2024/02/25 00:50:31;;;;;;;2.42;2.22;;;5.80;80.20;;;;;;5013664;28;20123;-63
2024/02/25 00:52:57;;;;;;;3.67;2.40;;;5.80;80.10;;;;;;5003589;28;20026;-63
2024/02/25 00:55:22;;;;;;;3.80;2.35;;;5.80;79.90;;;;;;5008228;28;20030;-63
2024/02/25 00:57:48;;;;;;;3.20;2.60;;;5.80;79.90;;;;;;5008281;28;20564;-63
2024/02/25 01:00:15;;;;;;;2.50;2.30;;;5.80;79.80;;;;;;5002498;28;20466;-64
2024/02/25 01:02:40;;;;;;;2.65;2.20;;;5.80;79.70;;;;;;5005756;28;20033;-63
2024/02/25 01:05:06;;;;;;;2.97;2.25;;;5.80;79.80;;;;;;5005114;28;20034;-63
2024/02/25 01:07:32;;;;;;;3.10;1.80;;;5.80;79.90;;;;;;5010713;28;20037;-63
2024/02/25 01:09:57;;;;;;;2.30;1.90;;;5.80;79.70;;;;;;5008413;28;20106;-64
2024/02/25 01:12:23;;;;;;;2.30;2.10;;;5.80;79.70;;;;;;5008077;28;20029;-63
2024/02/25 01:14:48;;;;;;;2.25;2.05;;;5.80;79.70;;;;;;5009135;28;20045;-64
2024/02/25 01:17:14;;;;;;;3.58;2.28;;;5.80;79.70;;;;;;5007656;28;20034;-63
2024/02/25 01:19:40;;;;;;;2.55;2.00;;;5.90;79.60;;;;;;5008564;28;20026;-64
2024/02/25 01:22:05;;;;;;;2.25;1.90;;;5.90;79.50;;;;;;5009733;28;20501;-63
2024/02/25 01:24:31;;;;;;;2.70;2.03;;;5.90;79.40;;;;;;5014693;28;20128;-63
2024/02/25 01:26:56;;;;;;;3.47;1.80;;;5.90;79.30;;;;;;5010151;28;20044;-63
2024/02/25 01:29:22;;;;;;;5.30;2.15;;;5.90;79.30;;;;;;5001785;28;20029;-63
2024/02/25 01:31:52;;;;;;;1.90;1.75;;;5.90;79.20;;;;;;5004322;28;20519;-64
2024/02/25 01:34:18;;;;;;;3.45;2.13;;;5.90;79.00;;;;;;5005971;28;20045;-63
2024/02/25 01:36:45;;;;;;;2.22;1.70;;;5.90;79.00;;;;;;5007842;28;20044;-63
2024/02/25 01:39:11;;;;;;;2.80;1.83;;;5.90;78.90;;;;;;5004756;28;20120;-63
2024/02/25 01:41:36;;;;;;;2.33;1.65;;;5.80;78.80;;;;;;5009162;28;20536;-62
2024/02/25 01:44:02;;;;;;;2.20;1.63;;;5.90;78.80;;;;;;5001806;28;20044;-62
2024/02/25 01:46:28;;;;;;;1.88;1.77;;;5.80;78.60;;;;;;5008356;28;20030;-63
2024/02/25 01:48:54;;;;;;;2.55;2.10;;;5.70;78.60;;;;;;5007450;28;20037;-63
2024/02/25 01:51:20;;;;;;;2.35;1.85;;;5.70;78.60;;;;;;5009178;28;20033;-63
2024/02/25 01:53:49;;;;;;;2.75;1.80;;;5.70;78.70;;;;;;5002990;28;20505;-63
2024/02/25 01:56:16;;;;;;;2.15;1.88;;;5.70;78.90;;;;;;5006258;28;20092;-62
2024/02/25 01:58:42;;;;;;;1.95;1.75;;;5.60;78.80;;;;;;5006576;28;20033;-62
2024/02/25 02:01:10;;;;;;;3.42;1.80;;;5.60;79.00;;;;;;5002661;28;20044;-63
2024/02/25 02:03:36;;;;;;;1.67;1.55;;;5.60;79.20;;;;;;5005831;28;20045;-62
2024/02/25 02:06:02;;;;;;;1.50;1.40;;;5.60;79.30;;;;;;5005948;28;20042;-61
2024/02/25 02:08:28;;;;;;;1.92;1.70;;;5.60;79.50;;;;;;5006359;28;20034;-61
2024/02/25 02:10:54;;;;;;;1.38;1.25;;;5.60;79.60;;;;;;5003632;28;20088;-62
2024/02/25 02:13:19;;;;;;;2.20;1.50;;;5.60;79.70;;;;;;5004647;28;20038;-62
2024/02/25 02:15:45;;;;;;;2.60;1.52;;;5.60;79.70;;;;;;5004658;28;20112;-63
2024/02/25 02:18:12;;;;;;;2.17;1.63;;;5.70;79.70;;;;;;5008477;28;20108;-63
2024/02/25 02:20:38;;;;;;;2.40;1.30;;;5.70;79.80;;;;;;5002735;28;20034;-62
2024/02/25 02:23:04;;;;;;;2.70;1.60;;;5.70;79.70;;;;;;5006993;28;20025;-63
2024/02/25 02:25:30;;;;;;;1.70;1.60;;;5.70;79.70;;;;;;4996612;28;20474;-63
2024/02/25 02:27:56;;;;;;;2.47;1.88;;;5.70;79.80;;;;;;4998870;28;20073;-62
2024/02/25 02:30:21;;;;;;;2.08;1.40;;;5.70;79.80;;;;;;5003549;28;20046;-63
2024/02/25 02:32:47;;;;;;;1.85;1.30;;;5.70;79.90;;;;;;5004042;28;20030;-62
2024/02/25 02:35:13;;;;;;;1.80;1.60;;;5.70;79.90;;;;;;5007068;28;20080;-63
2024/02/25 02:37:38;;;;;;;2.72;1.65;;;5.70;79.90;;;;;;5008705;28;20489;-63
2024/02/25 02:40:04;;;;;;;2.25;1.60;;;5.70;79.90;;;;;;5009495;28;20125;-63
2024/02/25 02:42:31;;;;;;;2.67;1.60;;;5.70;80.00;;;;;;5009519;28;20068;-62
2024/02/25 02:44:58;;;;;;;3.03;1.60;;;5.70;80.00;;;;;;5008873;28;20073;-63
2024/02/25 02:47:24;;;;;;;2.20;1.42;;;5.60;80.00;;;;;;5007396;28;20040;-60
2024/02/25 02:49:50;;;;;;;1.67;1.50;;;5.60;80.10;;;;;;5009297;28;20030;-61
2024/02/25 02:52:16;;;;;;;1.92;1.52;;;5.60;80.20;;;;;;5009389;28;20030;-62
2024/02/25 02:54:43;;;;;;;2.25;1.40;;;5.60;80.00;;;;;;5009049;28;20033;-63
2024/02/25 02:57:08;;;;;;;1.90;1.48;;;5.50;79.90;;;;;;5009174;28;20026;-63
2024/02/25 02:59:35;;;;;;;2.75;1.45;;;5.50;79.90;;;;;;5008496;28;20559;-62
2024/02/25 03:02:01;;;;;;;1.67;1.58;;;5.50;79.90;;;;;;5008860;28;20422;-63
2024/02/25 03:04:28;;;;;;;2.70;1.60;;;5.50;79.70;;;;;;5009100;28;20041;-63
2024/02/25 03:06:54;;;;;;;2.03;1.50;;;5.50;79.70;;;;;;5013751;28;20180;-62
2024/02/25 03:09:21;;;;;;;1.60;1.50;;;5.50;79.70;;;;;;5009081;28;20168;-62
2024/02/25 03:11:46;;;;;;;2.55;1.50;;;5.50;79.70;;;;;;5008759;28;20042;-62
2024/02/25 03:14:12;;;;;;;2.03;1.30;;;5.40;79.70;;;;;;5007144;28;20121;-63
2024/02/25 03:16:38;;;;;;;2.92;1.60;;;5.40;79.70;;;;;;5008718;28;20037;-63
2024/02/25 03:19:03;;;;;;;2.47;1.60;;;5.40;79.70;;;;;;5008904;28;20037;-63
2024/02/25 03:21:29;;;;;;;2.65;1.40;;;5.40;79.50;;;;;;5008448;28;20030;-62
2024/02/25 03:23:55;;;;;;;1.50;1.40;;;5.30;79.50;;;;;;5009491;28;20038;-63
2024/02/25 03:26:20;;;;;;;1.55;1.40;;;5.30;79.50;;;;;;5008535;28;20030;-63
2024/02/25 03:28:47;;;;;;;2.00;1.55;;;5.30;79.70;;;;;;5008873;28;20046;-63
2024/02/25 03:31:12;;;;;;;1.50;1.40;;;5.30;79.70;;;;;;5005338;28;20030;-63
2024/02/25 03:33:39;;;;;;;1.65;1.50;;;5.30;79.60;;;;;;5008396;28;20032;-63
2024/02/25 03:36:05;;;;;;;2.13;1.50;;;5.30;79.50;;;;;;5008613;28;20022;-64
2024/02/25 03:38:30;;;;;;;3.63;1.58;;;5.20;79.50;;;;;;5007421;28;20516;-63
2024/02/25 03:40:56;;;;;;;2.45;1.40;;;5.20;79.40;;;;;;5014314;28;20036;-63
2024/02/25 03:43:21;;;;;;;4.07;1.23;;;5.20;79.40;;;;;;5008487;28;20049;-63
2024/02/25 03:45:47;;;;;;;1.92;1.77;;;5.10;79.30;;;;;;5008071;28;20022;-63
2024/02/25 03:48:13;;;;;;;1.80;1.70;;;5.10;79.20;;;;;;5008705;28;20022;-63
2024/02/25 03:50:39;;;;;;;1.77;1.52;;;5.10;79.30;;;;;;5008444;28;20037;-61
2024/02/25 03:53:04;;;;;;;1.70;1.50;;;5.00;79.20;;;;;;5008761;28;20033;-63
2024/02/25 03:55:31;;;;;;;1.65;1.52;;;5.00;79.20;;;;;;5005295;28;20029;-63
2024/02/25 03:57:57;;;;;;;3.10;1.60;;;5.00;79.10;;;;;;5009238;28;20034;-63
2024/02/25 04:00:23;;;;;;;1.80;1.48;;;4.90;79.00;;;;;;5011099;28;20026;-62
2024/02/25 04:02:49;;;;;;;2.95;1.58;;;4.90;79.20;;;;;;5012146;28;20026;-61
2024/02/25 04:05:15;;;;;;;1.60;1.50;;;4.80;79.20;;;;;;5011902;28;20033;-62
2024/02/25 04:07:45;;;;;;;2.75;1.63;;;4.80;80.00;;;;;;5011722;28;20060;-62
2024/02/25 04:10:12;;;;;;;1.80;1.70;;;4.70;79.10;;;;;;5009383;28;20501;-63
2024/02/25 04:12:39;;;;;;;2.28;2.08;;;4.70;79.20;;;;;;5011984;28;20493;-61
2024/02/25 04:15:08;;;;;;;2.47;1.90;;;4.70;79.20;;;;;;5011689;28;20030;-63
2024/02/25 04:17:34;;;;;;;2.08;1.70;;;4.70;79.30;;;;;;5007149;28;20036;-61
2024/02/25 04:20:00;;;;;;;2.55;2.00;;;4.60;79.10;;;;;;5011914;28;20033;-62
2024/02/25 04:22:26;;;;;;;2.05;1.90;;;4.50;79.00;;;;;;5011834;28;20037;-63
2024/02/25 04:24:51;;;;;;;2.08;1.83;;;4.50;79.20;;;;;;5011448;28;20042;-61
2024/02/25 04:27:20;;;;;;;3.92;2.03;;;4.40;79.30;;;;;;5010639;28;20042;-61
2024/02/25 04:29:46;;;;;;;2.58;2.38;;;4.40;79.50;;;;;;5010723;28;20034;-62
2024/02/25 04:32:12;;;;;;;3.25;2.60;;;4.30;79.60;;;;;;5008832;28;20041;-63
2024/02/25 04:34:39;;;;;;;4.00;3.08;;;4.30;79.70;;;;;;5011335;28;20037;-62
2024/02/25 04:37:05;;;;;;;4.32;3.00;;;4.30;79.50;;;;;;5010139;28;20100;-62
2024/02/25 04:39:30;;;;;;;3.45;2.95;;;4.20;79.40;;;;;;5002044;28;20497;-62
2024/02/25 04:41:56;;;;;;;4.93;2.78;;;4.20;79.40;;;;;;5009666;28;20033;-63
2024/02/25 04:44:22;;;;;;;3.65;2.75;;;4.20;79.40;;;;;;5006614;28;20041;-63
2024/02/25 04:46:48;;;;;;;3.45;3.08;;;4.10;79.20;;;;;;5010657;28;20026;-62
2024/02/25 04:49:17;;;;;;;3.67;3.28;;;4.10;79.20;;;;;;5011776;28;20129;-63
2024/02/25 04:51:45;;;;;;;3.70;3.30;;;4.10;79.30;;;;;;5010616;28;20034;-62
2024/02/25 04:54:15;;;;;;;3.10;2.80;;;4.00;79.20;;;;;;5011201;28;20030;-62
2024/02/25 04:56:44;;;;;;;4.10;3.40;;;4.00;79.30;;;;;;5010842;28;20088;-62
2024/02/25 04:59:11;;;;;;;3.95;3.45;;;4.00;79.30;;;;;;5008593;28;20088;-62
2024/02/25 05:01:48;;;;;;;3.70;3.17;;;3.90;79.20;;;;;;5006768;28;20034;-61
2024/02/25 05:04:14;;;;;;;4.63;3.22;;;3.90;79.30;;;;;;5009185;28;20037;-62
2024/02/25 05:06:40;;;;;;;4.57;3.85;;;3.90;79.10;;;;;;5008229;28;20429;-63
2024/02/25 05:09:05;;;;;;;4.65;4.07;;;3.80;79.30;;;;;;5010888;28;20022;-60
2024/02/25 05:11:34;;;;;;;5.13;3.97;;;3.70;80.30;;;;;;5009608;28;20453;-61
2024/02/25 05:13:59;;;;;;;5.05;4.03;;;3.70;79.90;;;;;;5010953;28;20437;-62
2024/02/25 05:16:25;;;;;;;5.40;3.67;;;3.60;80.20;;;;;;5010589;28;20040;-62
2024/02/25 05:18:51;;;;;;;4.53;3.55;;;3.60;80.30;;;;;;5010415;28;20069;-63
2024/02/25 05:21:16;;;;;;;4.25;3.35;;;3.60;80.30;;;;;;5005461;28;20034;-63
2024/02/25 05:23:42;;;;;;;5.72;3.65;;;3.50;80.40;;;;;;5010055;28;20091;-61
2024/02/25 05:26:08;;;;;;;4.40;3.40;;;3.50;80.40;;;;;;5006881;28;20030;-62
2024/02/25 05:28:34;;;;;;;4.60;3.50;;;3.50;80.40;;;;;;5003393;28;20037;-61
2024/02/25 05:31:00;;;;;;;5.25;3.40;;;3.40;80.30;;;;;;5007395;28;20108;-61
2024/02/25 05:33:26;;;;;;;5.82;3.92;;;3.40;80.30;;;;;;5008212;28;20038;-62
2024/02/25 05:35:52;;;;;;;5.05;3.70;;;3.40;80.40;;;;;;5002401;28;20656;-62
2024/02/25 05:38:18;;;;;;;4.55;3.75;;;3.40;80.60;;;;;;5007191;28;20057;-62
2024/02/25 05:40:43;;;;;;;5.15;3.45;;;3.40;80.50;;;;;;5006113;28;20505;-61
2024/02/25 05:43:10;;;;;;;5.93;3.47;;;3.40;80.60;;;;;;5005310;28;20029;-61
2024/02/25 05:45:35;;;;;;;4.47;3.17;;;3.30;81.50;;;;;;5003766;28;20042;-63
2024/02/25 05:48:01;;;;;;;5.05;3.40;;;3.30;80.90;;;;;;5005835;28;20035;-62
2024/02/25 05:50:27;;;;;;;4.70;3.25;;;3.30;81.10;;;;;;5006573;28;20038;-63
2024/02/25 05:52:53;;;;;;;4.28;3.40;;;3.30;81.10;;;;;;5007537;28;20034;-61
2024/02/25 05:55:18;;;;;;;4.85;3.72;;;3.30;81.10;;;;;;5005348;28;20031;-61
2024/02/25 05:57:44;;;;;;;5.85;3.78;;;3.20;81.10;;;;;;5003132;28;20038;-62
2024/02/25 06:00:13;;;;;;;4.30;3.60;;;3.20;81.10;;;;;;5005898;28;20029;-62
2024/02/25 06:02:40;;;;;;;5.05;3.55;;;3.30;81.10;;;;;;5004791;28;20448;-62
2024/02/25 06:05:09;;;;;;;5.85;3.92;;;3.20;80.80;;;;;;5008133;28;20042;-63
2024/02/25 06:07:35;;;;;;;5.00;3.50;;;3.20;80.70;;;;;;5009509;28;20034;-63
2024/02/25 06:10:00;;;;;;;5.55;4.20;;;3.20;80.70;;;;;;5009722;28;20413;-63
2024/02/25 06:12:26;;;;;;;8.25;4.30;;;3.20;80.90;;;;;;5008293;28;20241;-62
2024/02/25 06:14:52;;;;;;;7.18;4.38;;;3.20;81.00;;;;;;5012834;28;20034;-63
2024/02/25 06:17:17;;;;;;;7.18;3.95;;;3.20;80.90;;;;;;5009742;28;20030;-62
2024/02/25 06:19:43;;;;;;;6.18;3.85;;;3.10;80.90;;;;;;5008663;28;20034;-63
2024/02/25 06:22:08;;;;;;;3.83;3.33;;;3.10;81.00;;;;;;5011107;28;20036;-62
2024/02/25 06:24:34;;;;;;;4.47;3.30;;;3.10;81.00;;;;;;5005456;28;20038;-63
2024/02/25 06:26:59;;;;;;;5.65;4.68;;;3.10;81.30;;;;;;4995025;28;20162;-61
2024/02/25 06:29:25;;;;;;;9.02;4.95;;;3.00;81.30;;;;;;4996768;28;20045;-63
2024/02/25 06:31:52;;;;;;;13.07;5.32;;;3.10;81.60;;;;;;4996456;28;20045;-62
2024/02/25 06:34:17;;;;;;;10.60;4.75;;;3.00;81.50;;;;;;5006045;28;20042;-61
2024/02/25 06:36:43;;;;;;;7.78;4.70;;;3.00;81.40;;;;;;5002686;28;20038;-62
2024/02/25 06:39:10;;;;;;;8.32;4.60;;;3.00;81.40;;;;;;5006181;28;20433;-61
2024/02/25 06:41:36;;;;;;;8.27;4.30;;;3.00;81.50;;;;;;4999246;28;20518;-62
2024/02/25 06:44:01;;;;;;;7.22;4.65;;;3.00;81.80;;;;;;4999637;28;20049;-61
2024/02/25 06:46:27;;;;;;;6.57;4.70;;;3.00;82.10;;;;;;5003824;28;20065;-61
2024/02/25 06:48:52;;;;;;;7.82;4.95;;;3.00;82.30;;;;;;5001918;28;20037;-62
2024/02/25 06:51:22;;;;;;;13.15;5.07;;;2.90;82.30;;;;;;5003548;28;20117;-62
2024/02/25 06:53:48;;;;;;;8.15;5.82;;;3.00;82.50;;;;;;5005708;28;20042;-61
2024/02/25 06:56:16;;;;;;;7.55;4.82;;;3.00;82.30;;;;;;5004449;28;20080;-62
2024/02/25 06:58:43;;;;;;;7.97;5.32;;;3.00;82.40;;;;;;5000408;28;20133;-62
2024/02/25 07:01:08;;;;;;;9.65;5.80;;;3.00;82.30;;;;;;5003996;28;20060;-59
2024/02/25 07:03:34;;;;;;;9.73;5.63;;;3.00;82.30;;;;;;5004962;28;20518;-60
2024/02/25 07:05:59;;;;;;;10.82;6.50;;;3.10;82.60;;;;;;5003806;28;20058;-61
2024/02/25 07:08:25;;;;;;;9.50;5.97;;;3.10;82.60;;;;;;4999496;28;20088;-62
2024/02/25 07:10:52;;;;;;;10.85;7.00;;;3.10;82.50;;;;;;5002139;28;20117;-62
2024/02/25 07:13:18;;;;;;;15.23;8.60;;;3.10;82.50;;;;;;5003494;28;20060;-62
2024/02/25 07:15:43;;;;;;;13.27;8.68;;;3.20;82.60;;;;;;5004419;28;20064;-59
2024/02/25 07:18:09;;;;;;;10.27;7.50;;;3.20;82.60;;;;;;5006313;28;20022;-60
2024/02/25 07:20:34;;;;;;;11.18;7.78;;;3.20;82.50;;;;;;5007755;28;20080;-62
2024/02/25 07:23:00;;;;;;;11.77;7.70;;;3.20;82.60;;;;;;5006924;28;20061;-61
2024/02/25 07:25:26;;;;;;;11.30;8.05;;;3.20;82.80;;;;;;4997979;28;20401;-59
2024/02/25 07:27:51;;;;;;;11.13;8.15;;;3.30;82.90;;;;;;4998736;28;20042;-61
2024/02/25 07:30:17;;;;;;;28.77;19.75;;;3.30;83.00;;;;;;5005446;28;20033;-60
2024/02/25 07:32:43;;;;;;;21.65;14.55;;;3.40;83.20;;;;;;5001714;28;20060;-60
2024/02/25 07:35:09;;;;;;;18.02;12.60;;;3.40;83.30;;;;;;5007925;28;20504;-61
2024/02/25 07:37:34;;;;;;;17.27;10.85;;;3.50;84.00;;;;;;5006054;28;20121;-61
2024/02/25 07:40:00;;;;;;;14.48;10.80;;;3.50;83.50;;;;;;5008540;28;20042;-60
2024/02/25 07:42:25;;;;;;;15.23;8.68;;;3.60;83.60;;;;;;5008426;28;20030;-62
2024/02/25 07:44:51;;;;;;;9.73;6.95;;;3.60;83.70;;;;;;5008004;28;20509;-61
2024/02/25 07:47:17;;;;;;;8.50;6.63;;;3.70;84.10;;;;;;5008837;28;20086;-60
2024/02/25 07:49:43;;;;;;;11.45;7.32;;;3.70;84.30;;;;;;5007122;28;20030;-60
2024/02/25 07:52:12;;;;;;;8.73;6.28;;;3.80;84.60;;;;;;5005278;28;20056;-62
2024/02/25 07:54:37;;;;;;;10.07;6.78;;;3.90;84.80;;;;;;5007921;28;20034;-61
2024/02/25 07:57:03;;;;;;;12.02;7.53;;;4.00;84.80;;;;;;5009071;28;20674;-60
2024/02/25 07:59:29;;;;;;;7.05;5.28;;;4.00;85.00;;;;;;5005914;28;20053;-61
2024/02/25 08:01:56;;;;;;;6.05;4.68;;;4.10;85.20;;;;;;5002928;28;20041;-61
2024/02/25 08:04:22;;;;;;;5.03;4.05;;;4.20;85.30;;;;;;5009054;28;20092;-60
2024/02/25 08:06:48;;;;;;;4.57;3.42;;;4.30;85.40;;;;;;5007854;28;20042;-61
2024/02/25 08:09:14;;;;;;;6.32;3.33;;;4.40;85.50;;;;;;5008620;28;20030;-62
2024/02/25 08:11:40;;;;;;;4.70;3.60;;;4.50;85.60;;;;;;5005801;28;20216;-61
2024/02/25 08:14:05;;;;;;;4.50;2.88;;;4.60;85.70;;;;;;5011011;28;20100;-59
2024/02/25 08:16:32;;;;;;;5.15;3.58;;;4.70;85.80;;;;;;5008209;28;20030;-61
2024/02/25 08:18:58;;;;;;;4.38;2.92;;;4.80;86.00;;;;;;5006868;28;20597;-62
2024/02/25 08:21:23;;;;;;;4.25;2.78;;;4.90;86.10;;;;;;5004895;28;20120;-62
2024/02/25 08:23:49;;;;;;;2.88;2.67;;;5.00;86.00;;;;;;4999527;28;20678;-61
2024/02/25 08:26:15;;;;;;;3.47;3.17;;;5.10;86.00;;;;;;5008298;28;20034;-61
2024/02/25 08:28:40;;;;;;;3.60;3.13;;;5.20;85.80;;;;;;5007355;28;20042;-61
2024/02/25 08:31:06;;;;;;;6.53;3.70;;;5.30;85.80;;;;;;5004481;28;20278;-62
2024/02/25 08:33:32;;;;;;;3.95;3.03;;;5.40;85.60;;;;;;5005032;28;20044;-61
2024/02/25 08:35:58;;;;;;;6.15;2.90;;;5.50;85.60;;;;;;5003564;28;20034;-61
2024/02/25 08:38:23;;;;;;;3.60;2.85;;;5.60;85.50;;;;;;5008062;28;20401;-61
2024/02/25 08:40:49;;;;;;;5.63;2.90;;;5.70;85.50;;;;;;5007000;28;20034;-63
2024/02/25 08:43:15;;;;;;;3.72;2.88;;;5.80;85.40;;;;;;5004295;28;20065;-61
2024/02/25 08:45:41;;;;;;;2.83;2.50;;;5.90;85.40;;;;;;4998377;28;20050;-62
2024/02/25 08:48:07;;;;;;;2.90;2.70;;;6.00;85.20;;;;;;5004680;28;20125;-62
2024/02/25 08:50:32;;;;;;;4.15;2.08;;;6.00;85.10;;;;;;5007312;28;20041;-63
2024/02/25 08:52:58;;;;;;;2.20;1.73;;;6.10;85.10;;;;;;5001938;28;20031;-63
2024/02/25 08:55:24;;;;;;;1.50;1.38;;;6.20;84.90;;;;;;5005672;28;20037;-63
2024/02/25 08:57:49;;;;;;;1.60;1.50;;;6.30;84.60;;;;;;5007178;28;20125;-62
2024/02/25 09:00:15;;;;;;;2.30;1.60;;;6.40;84.40;;;;;;5007474;28;20061;-63
2024/02/25 09:02:41;;;;;;;2.50;1.42;;;6.50;84.20;;;;;;4996899;28;20552;-62
2024/02/25 09:05:07;;;;;;;3.65;2.20;;;6.60;83.70;;;;;;5002202;28;20052;-62
2024/02/25 09:07:35;;;;;;;2.65;1.70;;;6.70;83.20;;;;;;5003119;28;20461;-63
2024/02/25 09:10:02;;;;;;;1.23;1.13;;;6.80;82.80;;;;;;5004007;28;20046;-63
2024/02/25 09:12:27;;;;;;;1.50;1.40;;;6.90;82.60;;;;;;5004855;28;20065;-63
2024/02/25 09:14:53;;;;;;;3.25;2.50;;;7.00;82.30;;;;;;4996647;28;20675;-61
2024/02/25 09:17:18;;;;;;;2.95;2.65;;;7.10;82.20;;;;;;5003352;28;20039;-63
2024/02/25 09:19:44;;;;;;;5.30;2.40;;;7.20;82.70;;;;;;5006109;28;20153;-63
2024/02/25 09:22:10;;;;;;;2.90;2.60;;;7.20;82.60;;;;;;4998845;28;20445;-61
2024/02/25 09:24:35;;;;;;;5.60;2.63;;;7.30;82.30;;;;;;5000720;28;20069;-62
2024/02/25 09:27:01;;;;;;;3.85;3.35;;;7.40;82.20;;;;;;5002593;28;20465;-63
2024/02/25 09:29:26;;;;;;;2.88;2.50;;;7.40;82.40;;;;;;5004002;28;20060;-62
2024/02/25 09:31:58;;;;;;;3.88;2.90;;;7.50;82.80;;;;;;4997728;28;20038;-62
2024/02/25 09:34:24;;;;;;;3.47;2.90;;;7.60;82.70;;;;;;5006887;28;20029;-61
2024/02/25 09:36:50;;;;;;;4.57;2.85;;;7.60;82.50;;;;;;5001692;28;20456;-63
2024/02/25 09:39:16;;;;;;;3.33;2.50;;;7.70;82.60;;;;;;5000089;28;20040;-61
2024/02/25 09:41:42;;;;;;;4.63;2.30;;;7.70;82.60;;;;;;5003458;28;20061;-63
2024/02/25 09:44:18;;;;;;;2.65;1.70;;;7.80;81.90;;;;;;5000491;28;20536;-61
2024/02/25 09:46:44;;;;;;;2.20;2.00;;;7.90;80.60;;;;;;4997867;28;20073;-63
2024/02/25 09:49:10;;;;;;;2.72;1.90;;;7.90;80.60;;;;;;5002407;28;20029;-62
2024/02/25 09:51:36;;;;;;;3.20;2.25;;;7.90;80.30;;;;;;5004308;28;20204;-62
2024/02/25 09:54:05;;;;;;;1.90;1.60;;;7.90;80.00;;;;;;5005907;28;20038;-62
2024/02/25 09:56:31;;;;;;;1.50;1.35;;;8.00;78.90;;;;;;5001656;28;20053;-63
2024/02/25 09:58:57;;;;;;;2.33;1.58;;;8.10;78.40;;;;;;5006365;28;20521;-63
2024/02/25 10:01:24;;;;;;;4.60;1.90;;;8.10;77.80;;;;;;5000398;28;20088;-62
2024/02/25 10:03:51;;;;;;;2.00;1.55;;;8.10;77.90;;;;;;4996601;28;20118;-61
2024/02/25 10:06:16;;;;;;;1.42;1.20;;;8.10;77.30;;;;;;4998040;28;20038;-63
2024/02/25 10:08:50;;;;;;;1.40;1.20;;;8.20;77.20;;;;;;5005199;28;20038;-62
2024/02/25 10:11:17;;;;;;;2.30;1.50;;;8.20;76.90;;;;;;4999079;28;20088;-62
2024/02/25 10:13:45;;;;;;;1.30;1.20;;;8.30;76.80;;;;;;5002501;28;20076;-63
2024/02/25 10:16:15;;;;;;;1.50;1.30;;;8.30;76.40;;;;;;4992332;28;20105;-63
2024/02/25 10:18:42;;;;;;;2.10;1.48;;;8.40;75.90;;;;;;5000091;28;20036;-63
2024/02/25 10:21:08;;;;;;;1.95;1.40;;;8.40;76.30;;;;;;4998908;28;20030;-63
2024/02/25 10:23:34;;;;;;;2.40;1.50;;;8.50;76.60;;;;;;5003706;28;20037;-62
2024/02/25 10:26:26;;;;;;;1.95;1.38;;;8.60;76.40;;;;;;4998043;28;20041;-63
2024/02/25 10:29:05;;;;;;;1.88;1.50;;;8.60;74.90;;;;;;5004939;28;20113;-63
2024/02/25 10:31:32;;;;;;;1.75;1.65;;;8.70;74.70;;;;;;4997142;28;20054;-61
2024/02/25 10:33:59;;;;;;;1.58;1.48;;;8.80;75.30;;;;;;5000582;28;20041;-63
2024/02/25 10:36:26;;;;;;;1.52;1.42;;;8.80;75.40;;;;;;4996354;28;20026;-63
2024/02/25 10:38:55;;;;;;;1.60;1.50;;;8.90;74.80;;;;;;5001398;28;20488;-64
2024/02/25 10:41:21;;;;;;;1.75;1.60;;;8.90;74.70;;;;;;5002323;28;20117;-60
2024/02/25 10:43:52;;;;;;;3.25;1.60;;;9.00;74.50;;;;;;5002606;28;20534;-61
2024/02/25 10:46:30;;;;;;;1.77;1.40;;;9.00;74.30;;;;;;4998001;28;20041;-63
2024/02/25 10:49:00;;;;;;;1.90;1.65;;;9.00;73.90;;;;;;5004609;28;20038;-63
2024/02/25 10:51:27;;;;;;;1.40;1.30;;;9.10;74.60;;;;;;5005884;28;20129;-61
2024/02/25 10:53:53;;;;;;;1.45;1.35;;;9.10;74.40;;;;;;5003442;28;20087;-62
2024/02/25 10:56:20;;;;;;;1.40;1.30;;;9.20;73.90;;;;;;5004451;28;20041;-61
2024/02/25 10:58:46;;;;;;;1.10;1.00;;;9.20;73.70;;;;;;5008497;28;20314;-62
2024/02/25 11:01:12;;;;;;;1.30;1.20;;;9.30;73.70;;;;;;5007067;28;20095;-61
2024/02/25 11:03:40;;;;;;;2.00;1.30;;;9.40;73.50;;;;;;5008593;28;20072;-63
2024/02/25 11:06:07;;;;;;;1.30;1.10;;;9.40;73.40;;;;;;5008608;28;20026;-63
2024/02/25 11:08:41;;;;;;;1.20;1.10;;;9.40;73.00;;;;;;5010709;28;20113;-63
2024/02/25 11:11:11;;;;;;;1.43;1.10;;;9.50;72.50;;;;;;5013065;28;20034;-61
2024/02/25 11:13:44;;;;;;;1.40;1.30;;;9.50;72.50;;;;;;5012438;28;20023;-63
2024/02/25 11:16:10;;;;;;;2.47;1.40;;;9.60;72.30;;;;;;5009836;28;20515;-62
2024/02/25 11:18:45;;;;;;;1.40;1.30;;;9.60;72.50;;;;;;5010880;28;20034;-62
2024/02/25 11:21:18;;;;;;;2.05;1.35;;;9.60;72.20;;;;;;5012268;28;20026;-60
2024/02/25 11:23:46;;;;;;;2.65;1.58;;;9.60;72.10;;;;;;5011357;28;20058;-60
2024/02/25 11:26:33;;;;;;;1.20;1.10;;;9.70;72.40;;;;;;5009542;28;20509;-62
2024/02/25 11:29:22;;;;;;;1.98;1.50;;;9.70;71.80;;;;;;5012581;28;20034;-60
2024/02/25 11:31:47;;;;;;;1.92;1.30;;;9.80;71.30;;;;;;5009696;28;20042;-63
2024/02/25 11:34:13;;;;;;;1.40;1.30;;;9.80;72.50;;;;;;5012518;28;20084;-62
2024/02/25 11:36:42;;;;;;;1.25;1.17;;;9.90;72.00;;;;;;5012688;28;20038;-63
2024/02/25 11:39:08;;;;;;;1.83;1.20;;;9.90;72.30;;;;;;5009831;28;20485;-63
2024/02/25 11:41:34;;;;;;;1.60;1.40;;;10.00;71.70;;;;;;5011916;28;20050;-63
2024/02/25 11:44:03;;;;;;;1.38;1.10;;;10.00;70.80;;;;;;5012096;28;20045;-63
2024/02/25 11:46:29;;;;;;;1.40;1.20;;;10.00;71.10;;;;;;5010189;28;20116;-63
2024/02/25 11:48:54;;;;;;;1.10;1.00;;;10.10;71.40;;;;;;5012028;28;20120;-63
2024/02/25 11:51:20;;;;;;;1.75;1.30;;;10.10;71.50;;;;;;5011234;28;20424;-62
2024/02/25 11:53:50;;;;;;;1.17;1.00;;;10.20;70.70;;;;;;5011934;28;20054;-62
2024/02/25 11:56:17;;;;;;;1.15;1.08;;;10.20;70.20;;;;;;5011254;28;20030;-60
2024/02/25 11:58:43;;;;;;;1.77;1.30;;;10.20;70.60;;;;;;5002277;28;20100;-62
2024/02/25 12:01:09;;;;;;;1.30;0.90;;;10.30;70.40;;;;;;5007400;28;20045;-62
2024/02/25 12:03:39;;;;;;;1.30;1.17;;;10.30;70.00;;;;;;5007904;28;20037;-62
2024/02/25 12:06:05;;;;;;;1.58;0.90;;;10.30;69.40;;;;;;5006167;28;20659;-62
2024/02/25 12:08:31;;;;;;;1.15;0.90;;;10.40;69.80;;;;;;5006465;28;20054;-61
2024/02/25 12:11:00;;;;;;;2.03;0.70;;;10.50;69.90;;;;;;5006984;28;20121;-61
2024/02/25 12:13:26;;;;;;;1.65;0.80;;;10.50;69.30;;;;;;5008823;28;20045;-62
2024/02/25 12:15:52;;;;;;;1.02;0.93;;;10.60;69.50;;;;;;5008310;28;20347;-62
2024/02/25 12:18:18;;;;;;;1.40;0.60;;;10.60;69.80;;;;;;5007361;28;20484;-61
2024/02/25 12:20:44;;;;;;;0.70;0.70;;;10.70;69.70;;;;;;5007515;28;20101;-62
2024/02/25 12:23:10;;;;;;;0.77;0.60;;;10.80;69.70;;;;;;5008515;28;20030;-62
2024/02/25 12:25:36;;;;;;;0.82;0.68;;;10.90;69.30;;;;;;5006380;28;20065;-63
2024/02/25 12:28:10;;;;;;;0.65;0.50;;;11.00;68.90;;;;;;5008916;28;20026;-62
2024/02/25 12:30:37;;;;;;;0.73;0.50;;;11.10;67.50;;;;;;5004774;28;20070;-62
2024/02/25 12:33:05;;;;;;;0.70;0.60;;;11.10;68.00;;;;;;5003091;28;20069;-60
2024/02/25 12:35:31;;;;;;;0.80;0.80;;;11.20;67.50;;;;;;5007757;28;20458;-60
2024/02/25 12:37:57;;;;;;;0.60;0.55;;;11.20;67.50;;;;;;5003290;28;20042;-60
2024/02/25 12:40:23;;;;;;;1.67;0.40;;;11.30;67.60;;;;;;5009685;28;20386;-62
2024/02/25 12:42:52;;;;;;;0.57;0.30;;;11.40;67.10;;;;;;5009720;28;20108;-59
2024/02/25 12:45:19;;;;;;;0.45;0.28;;;11.40;66.60;;;;;;5001690;28;20080;-62
2024/02/25 12:47:45;;;;;;;0.50;0.30;;;11.50;65.90;;;;;;5004154;28;20037;-64
2024/02/25 12:50:11;;;;;;;0.55;0.40;;;11.50;65.50;;;;;;5001858;28;20030;-61
2024/02/25 12:52:41;;;;;;;0.30;0.30;;;11.50;65.70;;;;;;5004909;28;20030;-61